Time;durP1;ratioP1;P1;durP2;ratioP2;P2;SDS_P1;SDS_P2;PMS_P1;PMS_P2;Temp;Humidity;BMP_temperature;BMP_pressure;BME280_temperature;BME280_humidity;BME280_pressure;Samples;Min_cycle;Max_cycle;Signal;HPM_P1;HPM_P2
2022/07/20 00:00:14;;;;;;;0.00;0.00;;;;;;;;;;5055044;28;20046;-90
2022/07/20 00:02:40;;;;;;;0.00;0.00;;;;;;;;;;5055162;28;20204;-91
2022/07/20 00:05:06;;;;;;;0.00;0.00;;;;;;;;;;5038686;28;20347;-90
2022/07/20 00:07:32;;;;;;;0.00;0.00;;;;;;;;;;5054991;28;20036;-90
2022/07/20 00:12:43;;;;;;;0.00;0.00;;;;;;;;;;5073175;28;20044;-90
2022/07/20 00:15:09;;;;;;;0.00;0.00;;;;;;;;;;5054867;28;20402;-90
2022/07/20 00:17:35;;;;;;;0.00;0.00;;;;;;;;;;5055011;28;20056;-89
2022/07/20 00:20:02;;;;;;;0.00;0.00;;;;;;;;;;5054648;28;20047;-90
2022/07/20 00:22:28;;;;;;;0.17;0.00;;;;;;;;;;5054919;28;20117;-90
2022/07/20 00:24:53;;;;;;;0.00;0.00;;;;;;;;;;5054628;28;20068;-91
2022/07/20 00:27:19;;;;;;;0.00;0.00;;;;;;;;;;5072771;28;20045;-90
2022/07/20 00:29:46;;;;;;;0.00;0.00;;;;;;;;;;5054776;28;20384;-90
2022/07/20 00:32:12;;;;;;;0.00;0.00;;;;;;;;;;5054927;28;20093;-90
2022/07/20 00:34:38;;;;;;;0.00;0.00;;;;;;;;;;5054714;28;20044;-91
2022/07/20 00:37:04;;;;;;;0.00;0.00;;;;;;;;;;5054813;28;20044;-91
2022/07/20 00:39:30;;;;;;;0.00;0.00;;;;;;;;;;5054901;28;20486;-90
2022/07/20 00:41:56;;;;;;;0.00;0.00;;;;;;;;;;5054350;28;20040;-90
2022/07/20 00:44:22;;;;;;;0.00;0.00;;;;;;;;;;5072751;28;20457;-90
2022/07/20 00:46:48;;;;;;;0.00;0.00;;;;;;;;;;5054413;28;20063;-91
2022/07/20 00:49:15;;;;;;;0.00;0.00;;;;;;;;;;5054714;28;20079;-91
2022/07/20 00:51:43;;;;;;;0.00;0.00;;;;;;;;;;5054515;28;20041;-90
2022/07/20 00:54:09;;;;;;;0.00;0.00;;;;;;;;;;5038124;28;20102;-91
2022/07/20 00:56:36;;;;;;;0.00;0.00;;;;;;;;;;5038020;28;20036;-90
2022/07/20 00:59:03;;;;;;;0.00;0.00;;;;;;;;;;5038002;28;20132;-90
2022/07/20 01:01:30;;;;;;;0.00;0.00;;;;;;;;;;5072186;28;20387;-91
2022/07/20 01:03:56;;;;;;;0.00;0.00;;;;;;;;;;5054706;28;20083;-90
2022/07/20 01:06:22;;;;;;;0.00;0.00;;;;;;;;;;5054269;28;20040;-90
2022/07/20 01:08:51;;;;;;;0.00;0.00;;;;;;;;;;5054463;28;20109;-90
2022/07/20 01:11:18;;;;;;;0.00;0.00;;;;;;;;;;5054110;28;20102;-91
2022/07/20 01:13:44;;;;;;;0.00;0.00;;;;;;;;;;5072570;28;20037;-91
2022/07/20 01:16:10;;;;;;;0.00;0.00;;;;;;;;;;5054183;28;20064;-90
2022/07/20 01:18:36;;;;;;;0.00;0.00;;;;;;;;;;5054297;28;20056;-89
2022/07/20 01:21:06;;;;;;;0.00;0.00;;;;;;;;;;5054238;28;20044;-90
2022/07/20 01:23:32;;;;;;;0.00;0.00;;;;;;;;;;5054208;28;20043;-90
2022/07/20 01:25:58;;;;;;;0.00;0.00;;;;;;;;;;5054017;28;20044;-90
2022/07/20 01:28:24;;;;;;;0.00;0.00;;;;;;;;;;5054633;28;20115;-90
2022/07/20 01:30:51;;;;;;;0.00;0.00;;;;;;;;;;5053833;28;20514;-90
2022/07/20 01:33:17;;;;;;;0.00;0.00;;;;;;;;;;5054129;28;20105;-91
2022/07/20 01:35:43;;;;;;;0.00;0.00;;;;;;;;;;5053971;28;20055;-89
2022/07/20 01:38:09;;;;;;;0.00;0.00;;;;;;;;;;5054019;28;20080;-89
2022/07/20 01:40:35;;;;;;;0.45;0.25;;;;;;;;;;5054075;28;20095;-89
2022/07/20 01:43:01;;;;;;;0.00;0.00;;;;;;;;;;5058032;28;20066;-89
2022/07/20 01:45:27;;;;;;;0.00;0.00;;;;;;;;;;5075431;28;20624;-90
2022/07/20 01:47:53;;;;;;;0.00;0.00;;;;;;;;;;5057493;28;20048;-90
2022/07/20 01:50:19;;;;;;;0.00;0.00;;;;;;;;;;5057573;28;20058;-90
2022/07/20 01:52:45;;;;;;;0.00;0.00;;;;;;;;;;5057524;28;20083;-89
2022/07/20 01:55:11;;;;;;;0.10;0.00;;;;;;;;;;5057607;28;20079;-90
2022/07/20 01:57:37;;;;;;;0.00;0.00;;;;;;;;;;5057218;28;20044;-91
2022/07/20 02:00:08;;;;;;;0.00;0.00;;;;;;;;;;5057824;28;20094;-91
2022/07/20 02:02:34;;;;;;;0.00;0.00;;;;;;;;;;5057086;28;20123;-91
2022/07/20 02:05:00;;;;;;;0.00;0.00;;;;;;;;;;5075407;28;20083;-91
2022/07/20 02:07:26;;;;;;;0.00;0.00;;;;;;;;;;5056997;28;20552;-90
2022/07/20 02:09:52;;;;;;;0.00;0.00;;;;;;;;;;5057147;28;20041;-91
2022/07/20 02:12:19;;;;;;;0.00;0.00;;;;;;;;;;5056836;28;20080;-90
2022/07/20 02:14:45;;;;;;;0.00;0.00;;;;;;;;;;5075095;28;20076;-90
2022/07/20 02:17:11;;;;;;;0.00;0.00;;;;;;;;;;5056701;28;20426;-91
2022/07/20 02:19:37;;;;;;;0.00;0.00;;;;;;;;;;5073755;28;20055;-89
2022/07/20 02:22:03;;;;;;;0.00;0.00;;;;;;;;;;5074697;28;20036;-90
2022/07/20 02:24:29;;;;;;;0.00;0.00;;;;;;;;;;5075066;28;20037;-91
2022/07/20 02:26:55;;;;;;;0.03;0.00;;;;;;;;;;5056907;28;20044;-90
2022/07/20 02:29:21;;;;;;;0.00;0.00;;;;;;;;;;5074625;28;20045;-90
2022/07/20 02:31:47;;;;;;;0.00;0.00;;;;;;;;;;5056586;28;20048;-89
2022/07/20 02:34:13;;;;;;;0.00;0.00;;;;;;;;;;5057007;28;20048;-90
2022/07/20 02:36:39;;;;;;;0.00;0.00;;;;;;;;;;5056508;28;20128;-89
2022/07/20 02:39:05;;;;;;;0.00;0.00;;;;;;;;;;5056692;28;20066;-89
2022/07/20 02:41:32;;;;;;;0.00;0.00;;;;;;;;;;5056328;28;20049;-90
2022/07/20 02:43:59;;;;;;;0.00;0.00;;;;;;;;;;5056749;28;20116;-90
2022/07/20 02:46:25;;;;;;;0.00;0.00;;;;;;;;;;5073163;28;20041;-90
2022/07/20 02:48:51;;;;;;;0.00;0.00;;;;;;;;;;5056571;28;20391;-90
2022/07/20 02:51:17;;;;;;;0.00;0.00;;;;;;;;;;5056349;28;20044;-89
2022/07/20 02:53:43;;;;;;;0.00;0.00;;;;;;;;;;5056157;28;20483;-89
2022/07/20 02:56:09;;;;;;;0.00;0.00;;;;;;;;;;5056167;28;20040;-89
2022/07/20 02:58:35;;;;;;;0.00;0.00;;;;;;;;;;5056020;28;20090;-88
2022/07/20 03:01:00;;;;;;;0.00;0.00;;;;;;;;;;5056423;28;20041;-89
2022/07/20 03:03:26;;;;;;;0.00;0.00;;;;;;;;;;5073953;28;20518;-89
2022/07/20 03:05:52;;;;;;;0.00;0.00;;;;;;;;;;5073913;28;20040;-89
2022/07/20 03:08:18;;;;;;;0.00;0.00;;;;;;;;;;5056155;28;20087;-89
2022/07/20 03:10:44;;;;;;;0.00;0.00;;;;;;;;;;5055838;28;20048;-91
2022/07/20 03:13:10;;;;;;;0.00;0.00;;;;;;;;;;5055739;28;20063;-89
2022/07/20 03:15:36;;;;;;;0.00;0.00;;;;;;;;;;5072836;28;20127;-90
2022/07/20 03:18:02;;;;;;;0.00;0.00;;;;;;;;;;5073345;28;20044;-89
2022/07/20 03:20:31;;;;;;;0.00;0.00;;;;;;;;;;5073636;28;20040;-88
2022/07/20 03:22:58;;;;;;;0.00;0.00;;;;;;;;;;5072398;28;20033;-89
2022/07/20 03:25:24;;;;;;;0.00;0.00;;;;;;;;;;5055726;28;20044;-88
2022/07/20 03:27:54;;;;;;;0.00;0.00;;;;;;;;;;5055642;28;20392;-90
2022/07/20 03:30:21;;;;;;;0.00;0.00;;;;;;;;;;5055512;28;20056;-89
2022/07/20 03:32:47;;;;;;;0.00;0.00;;;;;;;;;;5055309;28;20438;-91
2022/07/20 03:35:14;;;;;;;0.00;0.00;;;;;;;;;;5055585;28;20072;-89
2022/07/20 03:37:40;;;;;;;0.00;0.00;;;;;;;;;;5073422;28;20036;-89
2022/07/20 03:40:07;;;;;;;0.00;0.00;;;;;;;;;;5073510;28;20426;-92
2022/07/20 03:42:33;;;;;;;0.00;0.00;;;;;;;;;;5055751;28;20127;-90
2022/07/20 03:44:59;;;;;;;0.00;0.00;;;;;;;;;;5055459;28;20109;-89
2022/07/20 03:47:25;;;;;;;0.00;0.00;;;;;;;;;;5071999;28;20143;-90
2022/07/20 03:49:51;;;;;;;0.00;0.00;;;;;;;;;;5055306;28;20051;-89
2022/07/20 03:52:18;;;;;;;0.00;0.00;;;;;;;;;;5055045;28;20044;-89
2022/07/20 03:54:44;;;;;;;0.00;0.00;;;;;;;;;;5055229;28;20044;-89
2022/07/20 03:57:10;;;;;;;0.00;0.00;;;;;;;;;;5055281;28;20044;-90
2022/07/20 03:59:36;;;;;;;0.00;0.00;;;;;;;;;;5055215;28;20525;-91
2022/07/20 04:02:03;;;;;;;0.00;0.00;;;;;;;;;;5055227;28;20376;-89
2022/07/20 04:04:29;;;;;;;0.00;0.00;;;;;;;;;;5054539;28;20040;-90
2022/07/20 04:06:55;;;;;;;0.00;0.00;;;;;;;;;;5054946;28;20040;-90
2022/07/20 04:09:43;;;;;;;0.00;0.00;;;;;;;;;;5054941;28;20040;-89
2022/07/20 04:12:09;;;;;;;0.00;0.00;;;;;;;;;;5072545;28;20127;-89
2022/07/20 04:14:35;;;;;;;0.00;0.00;;;;;;;;;;5054997;28;20484;-91
2022/07/20 04:17:01;;;;;;;0.00;0.00;;;;;;;;;;5054762;28;20048;-91
2022/07/20 04:19:27;;;;;;;0.00;0.00;;;;;;;;;;5071692;28;20050;-90
2022/07/20 04:22:00;;;;;;;0.00;0.00;;;;;;;;;;5055272;28;20055;-90
2022/07/20 04:24:27;;;;;;;0.00;0.00;;;;;;;;;;5055015;28;20036;-89
2022/07/20 04:26:53;;;;;;;0.00;0.00;;;;;;;;;;5055103;28;20036;-90
2022/07/20 04:29:20;;;;;;;0.00;0.00;;;;;;;;;;5054705;28;20091;-90
2022/07/20 04:31:46;;;;;;;0.00;0.00;;;;;;;;;;5054727;28;20056;-88
2022/07/20 04:34:12;;;;;;;0.00;0.00;;;;;;;;;;5054524;28;20044;-90
2022/07/20 04:36:39;;;;;;;0.00;0.00;;;;;;;;;;5054628;28;20037;-89
2022/07/20 04:39:05;;;;;;;0.00;0.00;;;;;;;;;;5054570;28;20044;-90
2022/07/20 04:41:31;;;;;;;0.00;0.00;;;;;;;;;;5054808;28;20079;-91
2022/07/20 04:43:57;;;;;;;0.00;0.00;;;;;;;;;;5054708;28;20072;-91
2022/07/20 04:46:23;;;;;;;0.00;0.00;;;;;;;;;;5054589;28;20553;-89
2022/07/20 04:48:49;;;;;;;0.00;0.00;;;;;;;;;;5054313;28;20104;-89
2022/07/20 04:51:15;;;;;;;0.00;0.00;;;;;;;;;;5054436;28;20044;-89
2022/07/20 04:53:41;;;;;;;0.00;0.00;;;;;;;;;;5054376;28;20392;-90
2022/07/20 04:56:09;;;;;;;0.00;0.00;;;;;;;;;;5054436;28;20050;-90
2022/07/20 04:58:35;;;;;;;0.00;0.00;;;;;;;;;;5054787;28;20047;-90
2022/07/20 05:01:01;;;;;;;0.00;0.00;;;;;;;;;;5054474;28;20058;-90
2022/07/20 05:03:27;;;;;;;0.00;0.00;;;;;;;;;;5054209;28;20040;-90
2022/07/20 05:05:53;;;;;;;0.00;0.00;;;;;;;;;;5054451;28;20123;-90
2022/07/20 05:08:19;;;;;;;0.00;0.00;;;;;;;;;;5054188;28;20487;-89
2022/07/20 05:10:45;;;;;;;0.00;0.00;;;;;;;;;;5054502;28;20128;-91
2022/07/20 05:13:11;;;;;;;0.00;0.00;;;;;;;;;;5054289;28;20453;-90
2022/07/20 05:15:37;;;;;;;0.00;0.00;;;;;;;;;;5054465;28;20041;-90
2022/07/20 05:18:03;;;;;;;0.00;0.00;;;;;;;;;;5057634;28;20063;-88
2022/07/20 05:20:29;;;;;;;0.00;0.00;;;;;;;;;;5058009;28;20127;-90
2022/07/20 05:22:55;;;;;;;0.00;0.00;;;;;;;;;;5057877;28;20063;-89
2022/07/20 05:25:21;;;;;;;0.00;0.00;;;;;;;;;;5058148;28;20461;-90
2022/07/20 05:27:47;;;;;;;0.32;0.10;;;;;;;;;;5058500;28;20172;-89
2022/07/20 05:30:13;;;;;;;0.00;0.00;;;;;;;;;;5057837;28;20401;-90
2022/07/20 05:32:39;;;;;;;0.00;0.00;;;;;;;;;;5057768;28;20048;-89
2022/07/20 05:35:06;;;;;;;0.00;0.00;;;;;;;;;;5074362;28;20040;-88
2022/07/20 05:37:32;;;;;;;0.00;0.00;;;;;;;;;;5075664;28;20059;-90
2022/07/20 05:39:58;;;;;;;0.00;0.00;;;;;;;;;;5057484;28;20115;-90
2022/07/20 05:42:24;;;;;;;0.00;0.00;;;;;;;;;;5057990;28;20044;-90
2022/07/20 05:44:50;;;;;;;0.00;0.00;;;;;;;;;;5057656;28;20044;-90
2022/07/20 05:47:17;;;;;;;0.00;0.00;;;;;;;;;;5075603;28;20510;-90
2022/07/20 05:49:47;;;;;;;0.00;0.00;;;;;;;;;;5057416;28;20147;-91
2022/07/20 05:52:13;;;;;;;0.00;0.00;;;;;;;;;;5057462;28;20037;-90
2022/07/20 05:54:39;;;;;;;0.00;0.00;;;;;;;;;;5057344;28;20115;-91
2022/07/20 05:57:05;;;;;;;0.00;0.00;;;;;;;;;;5057630;28;20075;-91
2022/07/20 05:59:31;;;;;;;0.00;0.00;;;;;;;;;;5057272;28;20048;-91
2022/07/20 06:01:57;;;;;;;0.00;0.00;;;;;;;;;;5075395;28;20079;-90
2022/07/20 06:04:23;;;;;;;0.00;0.00;;;;;;;;;;5057068;28;20450;-91
2022/07/20 06:06:49;;;;;;;0.00;0.00;;;;;;;;;;5057335;28;20040;-90
2022/07/20 06:09:15;;;;;;;0.00;0.00;;;;;;;;;;5057056;28;20032;-89
2022/07/20 06:11:41;;;;;;;0.05;0.00;;;;;;;;;;5057236;28;20045;-89
2022/07/20 06:14:08;;;;;;;0.00;0.00;;;;;;;;;;5074799;28;20487;-89
2022/07/20 06:16:34;;;;;;;0.00;0.00;;;;;;;;;;5073653;28;20056;-88
2022/07/20 06:18:59;;;;;;;0.00;0.00;;;;;;;;;;5056861;28;20071;-88
2022/07/20 06:21:25;;;;;;;0.00;0.00;;;;;;;;;;5057400;28;20048;-88
2022/07/20 06:23:52;;;;;;;0.00;0.00;;;;;;;;;;5056991;28;20135;-91
2022/07/20 06:26:18;;;;;;;0.00;0.00;;;;;;;;;;5073498;28;20037;-91
2022/07/20 06:28:44;;;;;;;0.00;0.00;;;;;;;;;;5074019;28;20404;-91
2022/07/20 06:31:10;;;;;;;0.00;0.00;;;;;;;;;;5074276;28;20132;-91
2022/07/20 06:33:36;;;;;;;0.00;0.00;;;;;;;;;;5070099;28;20484;-92
2022/07/20 06:36:02;;;;;;;0.00;0.00;;;;;;;;;;5065623;28;20102;-90
2022/07/20 06:38:28;;;;;;;0.00;0.00;;;;;;;;;;5056274;28;20083;-92
2022/07/20 06:40:54;;;;;;;0.00;0.00;;;;;;;;;;5074337;28;20435;-94
2022/07/20 06:43:22;;;;;;;0.00;0.00;;;;;;;;;;5073342;28;20534;-91
2022/07/20 06:45:49;;;;;;;0.00;0.00;;;;;;;;;;5054784;28;20032;-91
2022/07/20 06:48:15;;;;;;;0.00;0.00;;;;;;;;;;5070047;28;20094;-94
2022/07/20 06:50:41;;;;;;;0.00;0.00;;;;;;;;;;5073093;28;20054;-93
2022/07/20 06:53:07;;;;;;;0.00;0.00;;;;;;;;;;5054012;28;20091;-91
2022/07/20 06:55:33;;;;;;;0.00;0.00;;;;;;;;;;5059312;28;20550;-92
2022/07/20 06:58:00;;;;;;;0.00;0.00;;;;;;;;;;5055239;28;20077;-91
2022/07/20 07:00:25;;;;;;;0.00;0.00;;;;;;;;;;5054250;28;20098;-87
2022/07/20 07:02:51;;;;;;;0.00;0.00;;;;;;;;;;5055824;28;20497;-90
2022/07/20 07:05:17;;;;;;;0.00;0.00;;;;;;;;;;5072293;28;20040;-90
2022/07/20 07:07:43;;;;;;;0.00;0.00;;;;;;;;;;5072595;28;20145;-90
2022/07/20 07:10:10;;;;;;;0.00;0.00;;;;;;;;;;5073497;28;20500;-90
2022/07/20 07:12:36;;;;;;;0.00;0.00;;;;;;;;;;5066577;28;20052;-91
2022/07/20 07:15:03;;;;;;;0.00;0.00;;;;;;;;;;5053039;28;20049;-92
2022/07/20 07:17:30;;;;;;;0.00;0.00;;;;;;;;;;5065710;28;20063;-93
2022/07/20 07:19:57;;;;;;;0.00;0.00;;;;;;;;;;5075241;28;20040;-93
2022/07/20 07:22:23;;;;;;;0.00;0.00;;;;;;;;;;5073807;28;20105;-90
2022/07/20 07:24:49;;;;;;;0.00;0.00;;;;;;;;;;5073742;28;20075;-91
2022/07/20 07:27:14;;;;;;;0.00;0.00;;;;;;;;;;5061491;28;20037;-92
2022/07/20 07:29:40;;;;;;;0.00;0.00;;;;;;;;;;5074802;28;20036;-94
2022/07/20 07:32:06;;;;;;;0.00;0.00;;;;;;;;;;5074233;28;20048;-91
2022/07/20 07:34:33;;;;;;;0.00;0.00;;;;;;;;;;5067300;28;20399;-90
2022/07/20 07:36:59;;;;;;;0.00;0.00;;;;;;;;;;5075589;28;20506;-92
2022/07/20 07:39:25;;;;;;;0.00;0.00;;;;;;;;;;5055876;28;20041;-95
2022/07/20 07:41:51;;;;;;;0.00;0.00;;;;;;;;;;5066855;28;20041;-91
2022/07/20 07:44:17;;;;;;;0.00;0.00;;;;;;;;;;5077496;28;20036;-93
2022/07/20 07:57:06;;;;;;;0.00;0.00;;;;;;;;;;5247547;22;20053;-93
2022/07/20 07:59:32;;;;;;;0.00;0.00;;;;;;;;;;5015709;28;20053;-91
2022/07/20 08:01:58;;;;;;;0.00;0.00;;;;;;;;;;5015674;28;20134;-87
2022/07/20 08:04:24;;;;;;;0.00;0.00;;;;;;;;;;5015797;28;20038;-94
2022/07/20 08:06:50;;;;;;;0.00;0.00;;;;;;;;;;5015957;28;20374;-93
2022/07/20 08:09:16;;;;;;;0.00;0.00;;;;;;;;;;5015786;28;20135;-93
2022/07/20 08:11:42;;;;;;;0.00;0.00;;;;;;;;;;5015536;28;20041;-92
2022/07/20 08:14:08;;;;;;;0.00;0.00;;;;;;;;;;4999425;28;20041;-93
2022/07/20 08:16:34;;;;;;;0.00;0.00;;;;;;;;;;4999218;28;20090;-92
2022/07/20 08:19:00;;;;;;;0.00;0.00;;;;;;;;;;5015721;28;20121;-92
2022/07/20 08:21:26;;;;;;;0.00;0.00;;;;;;;;;;5015318;28;20045;-92
2022/07/20 08:23:52;;;;;;;0.00;0.00;;;;;;;;;;5015818;28;20163;-93
2022/07/20 08:26:19;;;;;;;0.00;0.00;;;;;;;;;;4999576;28;20037;-93
2022/07/20 08:28:44;;;;;;;0.00;0.00;;;;;;;;;;5015505;28;20489;-93
2022/07/20 08:31:12;;;;;;;0.00;0.00;;;;;;;;;;5015820;28;20051;-92
2022/07/20 08:33:38;;;;;;;0.00;0.00;;;;;;;;;;4999698;28;20520;-94
2022/07/20 08:36:04;;;;;;;0.00;0.00;;;;;;;;;;5016885;28;20042;-94
2022/07/20 08:38:30;;;;;;;0.05;0.00;;;;;;;;;;5016051;28;20072;-95
2022/07/20 08:40:57;;;;;;;0.00;0.00;;;;;;;;;;5016643;28;20037;-95
2022/07/20 08:43:23;;;;;;;0.00;0.00;;;;;;;;;;5049306;28;20060;-94
2022/07/20 08:45:53;;;;;;;0.00;0.00;;;;;;;;;;5029976;28;20110;-96
2022/07/20 08:48:19;;;;;;;0.00;0.00;;;;;;;;;;5028048;28;20536;-92
2022/07/20 08:50:46;;;;;;;0.00;0.00;;;;;;;;;;5016915;28;20069;-95
2022/07/20 08:53:13;;;;;;;0.00;0.00;;;;;;;;;;5025687;28;20041;-93
2022/07/20 08:55:48;;;;;;;0.00;0.00;;;;;;;;;;5145531;22;20497;-93
2022/07/20 08:58:22;;;;;;;0.00;0.00;;;;;;;;;;5034725;28;20057;-95
2022/07/20 09:00:57;;;;;;;0.00;0.00;;;;;;;;;;4991254;28;20048;-95
2022/07/20 09:03:26;;;;;;;0.00;0.00;;;;;;;;;;5025857;28;20041;-95
2022/07/20 09:06:25;;;;;;;0.00;0.00;;;;;;;;;;5021428;28;20042;-95
2022/07/20 09:09:29;;;;;;;0.00;0.00;;;;;;;;;;4981027;28;20045;-95
2022/07/20 09:11:55;;;;;;;0.00;0.00;;;;;;;;;;4995222;28;20064;-95
2022/07/20 09:14:43;;;;;;;0.00;0.00;;;;;;;;;;4990326;28;20053;-96
2022/07/20 09:17:19;;;;;;;0.00;0.00;;;;;;;;;;5004167;28;20058;-95
2022/07/20 09:19:58;;;;;;;0.10;0.00;;;;;;;;;;5025455;28;20093;-95
2022/07/20 09:22:31;;;;;;;0.10;0.00;;;;;;;;;;5029125;28;20041;-95
2022/07/20 09:35:44;;;;;;;0.00;0.00;;;;;;;;;;5303939;22;20063;-94
2022/07/20 09:58:15;;;;;;;0.00;0.00;;;;;;;;;;5908380;22;20088;-92
2022/07/20 10:09:21;;;;;;;;;;;;;;;;;;;;;
2022/07/20 10:14:32;;;;;;;0.00;0.00;;;;;;;;;;5186191;22;20068;-90
2022/07/20 10:16:58;;;;;;;0.00;0.00;;;;;;;;;;5182650;23;20047;-93
2022/07/20 10:27:39;;;;;;;0.00;0.00;;;;;;;;;;5690325;22;20077;-94
2022/07/20 10:30:15;;;;;;;0.55;0.28;;;;;;;;;;5044402;23;20051;-93
2022/07/20 10:32:51;;;;;;;0.00;0.00;;;;;;;;;;4965603;29;20058;-93
2022/07/20 10:35:29;;;;;;;0.17;0.10;;;;;;;;;;4964962;29;20103;-93
2022/07/20 10:37:56;;;;;;;0.00;0.00;;;;;;;;;;4959207;29;20114;-96
2022/07/20 10:40:28;;;;;;;0.00;0.00;;;;;;;;;;4960627;29;20047;-93
2022/07/20 10:43:06;;;;;;;0.00;0.00;;;;;;;;;;4940018;29;20487;-92
2022/07/20 10:45:33;;;;;;;0.20;0.10;;;;;;;;;;4957834;29;20487;-92
2022/07/20 10:48:11;;;;;;;0.10;0.00;;;;;;;;;;4956801;29;20483;-94
2022/07/20 10:50:41;;;;;;;0.00;0.00;;;;;;;;;;4956049;29;20428;-93
2022/07/20 10:53:10;;;;;;;0.20;0.00;;;;;;;;;;4957996;29;20054;-94
2022/07/20 10:55:42;;;;;;;0.52;0.03;;;;;;;;;;4956229;29;20093;-94
2022/07/20 10:58:10;;;;;;;0.00;0.00;;;;;;;;;;4943667;29;20043;-96
2022/07/20 11:00:36;;;;;;;0.00;0.00;;;;;;;;;;4955637;29;20047;-92
2022/07/20 11:03:11;;;;;;;0.00;0.00;;;;;;;;;;4956662;29;20167;-92
2022/07/20 11:05:38;;;;;;;0.00;0.00;;;;;;;;;;4956413;29;20039;-92
2022/07/20 11:08:07;;;;;;;0.20;0.20;;;;;;;;;;4955131;29;20051;-91
2022/07/20 11:10:34;;;;;;;0.00;0.00;;;;;;;;;;4956121;29;20114;-91
2022/07/20 11:13:02;;;;;;;0.00;0.00;;;;;;;;;;4956332;28;20043;-90
2022/07/20 11:15:37;;;;;;;0.00;0.00;;;;;;;;;;4955029;29;20035;-93
2022/07/20 11:18:03;;;;;;;0.00;0.00;;;;;;;;;;4954778;29;20051;-91
2022/07/20 11:20:29;;;;;;;0.00;0.00;;;;;;;;;;4955773;29;20047;-94
2022/07/20 11:22:56;;;;;;;0.00;0.00;;;;;;;;;;4973522;28;20141;-91
2022/07/20 11:25:24;;;;;;;0.90;0.00;;;;;;;;;;4974062;28;20043;-93
2022/07/20 11:28:00;;;;;;;0.00;0.00;;;;;;;;;;4976117;28;20462;-93
2022/07/20 11:30:35;;;;;;;0.00;0.00;;;;;;;;;;4975636;28;20093;-92
2022/07/20 11:33:01;;;;;;;0.00;0.00;;;;;;;;;;4975047;28;20050;-94
2022/07/20 11:35:27;;;;;;;0.25;0.00;;;;;;;;;;4975871;28;20043;-92
2022/07/20 11:37:54;;;;;;;0.00;0.00;;;;;;;;;;4975304;28;20121;-91
2022/07/20 11:40:20;;;;;;;0.00;0.00;;;;;;;;;;4958537;28;20046;-90
2022/07/20 11:43:08;;;;;;;0.00;0.00;;;;;;;;;;4977440;28;20038;-90
2022/07/20 11:45:34;;;;;;;0.00;0.00;;;;;;;;;;4977432;28;20042;-91
2022/07/20 11:48:03;;;;;;;0.00;0.00;;;;;;;;;;4975891;28;20047;-92
2022/07/20 11:50:33;;;;;;;0.00;0.00;;;;;;;;;;4957305;28;20054;-91
2022/07/20 11:52:59;;;;;;;0.05;0.00;;;;;;;;;;4973913;28;20556;-91
2022/07/20 11:55:35;;;;;;;0.15;0.05;;;;;;;;;;4974201;28;20050;-93
2022/07/20 11:58:02;;;;;;;0.00;0.00;;;;;;;;;;4975458;28;20122;-89
2022/07/20 12:00:29;;;;;;;0.00;0.00;;;;;;;;;;4982157;28;20034;-92
2022/07/20 12:08:28;;;;;;;0.00;0.00;;;;;;;;;;5176438;22;20045;-93
2022/07/20 12:10:55;;;;;;;0.00;0.00;;;;;;;;;;5036947;28;20485;-93
2022/07/20 12:13:33;;;;;;;0.00;0.00;;;;;;;;;;5070670;23;20076;-91
2022/07/20 12:16:09;;;;;;;0.00;0.00;;;;;;;;;;5013192;28;20042;-93
2022/07/20 12:18:44;;;;;;;;;;;;;;;;;;5108420;22;20058;-91
2022/07/20 12:21:12;;;;;;;0.00;0.00;;;;;;;;;;5023956;28;19917;-92
2022/07/20 12:23:57;;;;;;;0.00;0.00;;;;;;;;;;5041126;28;20060;-92
2022/07/20 12:26:28;;;;;;;0.00;0.00;;;;;;;;;;5000134;28;20073;-93
2022/07/20 12:29:21;;;;;;;0.00;0.00;;;;;;;;;;5034369;28;20042;-93
2022/07/20 12:31:59;;;;;;;0.00;0.00;;;;;;;;;;5039713;28;20045;-94
2022/07/20 12:34:25;;;;;;;0.15;0.08;;;;;;;;;;5035062;28;20053;-93
2022/07/20 12:36:51;;;;;;;0.00;0.00;;;;;;;;;;5033154;28;20056;-94
2022/07/20 12:39:36;;;;;;;0.00;0.00;;;;;;;;;;5015081;28;20359;-94
2022/07/20 12:42:13;;;;;;;0.00;0.00;;;;;;;;;;5015724;28;20033;-93
2022/07/20 12:44:39;;;;;;;0.00;0.00;;;;;;;;;;5033196;28;20380;-93
2022/07/20 12:47:05;;;;;;;0.00;0.00;;;;;;;;;;5033050;28;20088;-93
2022/07/20 12:49:34;;;;;;;0.10;0.03;;;;;;;;;;5015391;28;20049;-92
2022/07/20 12:52:00;;;;;;;0.00;0.00;;;;;;;;;;5015224;28;20080;-91
2022/07/20 12:54:29;;;;;;;0.00;0.00;;;;;;;;;;5015320;28;20041;-92
2022/07/20 12:56:57;;;;;;;0.00;0.00;;;;;;;;;;5381542;23;20044;-91
2022/07/20 12:59:26;;;;;;;0.00;0.00;;;;;;;;;;5041144;28;20053;-93
2022/07/20 13:01:52;;;;;;;0.00;0.00;;;;;;;;;;5032000;28;20392;-94
2022/07/20 13:04:19;;;;;;;0.00;0.00;;;;;;;;;;5032836;28;20076;-96
2022/07/20 13:06:46;;;;;;;0.00;0.00;;;;;;;;;;5031770;28;20040;-93
2022/07/20 13:09:13;;;;;;;0.00;0.00;;;;;;;;;;5031667;28;20045;-92
2022/07/20 13:11:41;;;;;;;0.00;0.00;;;;;;;;;;5032738;28;20052;-93
2022/07/20 13:14:10;;;;;;;0.00;0.00;;;;;;;;;;5031377;28;20060;-92
2022/07/20 13:16:45;;;;;;;0.00;0.00;;;;;;;;;;5032107;28;20085;-93
2022/07/20 13:19:11;;;;;;;0.00;0.00;;;;;;;;;;5031954;28;20049;-92
2022/07/20 13:21:37;;;;;;;0.00;0.00;;;;;;;;;;5032116;28;20117;-93
2022/07/20 13:24:12;;;;;;;0.00;0.00;;;;;;;;;;5034202;28;20041;-95
2022/07/20 13:26:40;;;;;;;0.00;0.00;;;;;;;;;;5034483;28;20095;-94
2022/07/20 13:29:06;;;;;;;0.00;0.00;;;;;;;;;;5032799;28;20049;-94
2022/07/20 13:31:34;;;;;;;0.00;0.00;;;;;;;;;;5031428;28;20471;-96
2022/07/20 13:34:01;;;;;;;0.00;0.00;;;;;;;;;;5032850;28;20103;-93
2022/07/20 13:36:27;;;;;;;0.10;0.00;;;;;;;;;;5032867;28;20038;-92
2022/07/20 13:38:56;;;;;;;0.00;0.00;;;;;;;;;;5035858;28;20477;-95
2022/07/20 13:41:26;;;;;;;0.00;0.00;;;;;;;;;;5036243;28;20037;-95
2022/07/20 13:43:52;;;;;;;0.00;0.00;;;;;;;;;;5035098;28;20045;-94
2022/07/20 13:46:18;;;;;;;0.00;0.00;;;;;;;;;;5036260;28;20061;-92
2022/07/20 13:48:47;;;;;;;0.00;0.00;;;;;;;;;;5035801;28;20481;-90
2022/07/20 13:51:13;;;;;;;0.00;0.00;;;;;;;;;;5037111;28;20404;-95
2022/07/20 13:53:42;;;;;;;0.00;0.00;;;;;;;;;;5036402;28;20397;-93
2022/07/20 13:56:09;;;;;;;0.00;0.00;;;;;;;;;;5036021;28;20484;-93
2022/07/20 13:58:38;;;;;;;0.00;0.00;;;;;;;;;;5035291;28;20060;-93
2022/07/20 14:01:07;;;;;;;0.00;0.00;;;;;;;;;;5036415;28;20073;-93
2022/07/20 14:03:33;;;;;;;0.00;0.00;;;;;;;;;;5035849;28;20041;-95
2022/07/20 14:06:00;;;;;;;0.00;0.00;;;;;;;;;;5036670;28;20068;-93
2022/07/20 14:08:26;;;;;;;0.00;0.00;;;;;;;;;;5018247;28;20049;-95
2022/07/20 14:10:52;;;;;;;0.00;0.00;;;;;;;;;;5035781;28;20041;-94
2022/07/20 14:13:19;;;;;;;0.00;0.00;;;;;;;;;;5037653;28;20056;-93
2022/07/20 14:15:45;;;;;;;0.00;0.00;;;;;;;;;;5039752;28;20481;-94
2022/07/20 14:18:14;;;;;;;0.00;0.00;;;;;;;;;;5034870;28;20052;-92
2022/07/20 14:20:46;;;;;;;0.00;0.00;;;;;;;;;;5036402;28;20041;-94
2022/07/20 14:23:17;;;;;;;0.00;0.00;;;;;;;;;;5036588;28;20434;-94
2022/07/20 14:25:43;;;;;;;0.00;0.00;;;;;;;;;;5041605;28;20056;-95
2022/07/20 14:28:09;;;;;;;0.00;0.00;;;;;;;;;;5033317;28;20110;-93
2022/07/20 14:30:36;;;;;;;0.20;0.17;;;;;;;;;;5036983;28;20045;-93
2022/07/20 14:35:32;;;;;;;0.00;0.00;;;;;;;;;;5200806;22;20049;-94
2022/07/20 14:37:58;;;;;;;0.00;0.00;;;;;;;;;;5022818;28;20041;-95
2022/07/20 14:40:29;;;;;;;0.22;0.10;;;;;;;;;;5020531;28;20398;-92
2022/07/20 14:42:55;;;;;;;0.00;0.00;;;;;;;;;;5021546;28;20095;-93
2022/07/20 14:45:43;;;;;;;0.00;0.00;;;;;;;;;;5036949;28;20040;-94
2022/07/20 14:48:12;;;;;;;0.00;0.00;;;;;;;;;;5032197;28;20049;-93
2022/07/20 14:50:38;;;;;;;0.00;0.00;;;;;;;;;;5033436;28;20175;-92
2022/07/20 14:53:06;;;;;;;0.00;0.00;;;;;;;;;;5040692;28;20045;-93
2022/07/20 14:55:35;;;;;;;0.00;0.00;;;;;;;;;;5041848;28;20136;-94
2022/07/20 14:58:02;;;;;;;0.00;0.00;;;;;;;;;;5039424;28;20069;-95
2022/07/20 15:00:31;;;;;;;0.00;0.00;;;;;;;;;;5043826;28;20038;-88
2022/07/20 15:02:57;;;;;;;0.00;0.00;;;;;;;;;;5026523;28;20066;-94
2022/07/20 15:05:33;;;;;;;0.00;0.00;;;;;;;;;;5027959;28;20116;-95
2022/07/20 15:07:59;;;;;;;0.00;0.00;;;;;;;;;;5023968;28;20132;-96
2022/07/20 15:10:25;;;;;;;0.30;0.00;;;;;;;;;;5018695;28;20050;-94
2022/07/20 15:12:51;;;;;;;0.00;0.00;;;;;;;;;;5017097;28;20436;-95
2022/07/20 15:15:18;;;;;;;0.00;0.00;;;;;;;;;;5016757;28;20401;-93
2022/07/20 15:17:51;;;;;;;0.00;0.00;;;;;;;;;;5019745;28;20111;-94
2022/07/20 15:20:18;;;;;;;0.00;0.00;;;;;;;;;;5020280;28;20076;-95
2022/07/20 15:22:44;;;;;;;0.00;0.00;;;;;;;;;;5022943;28;20045;-93
2022/07/20 15:25:17;;;;;;;0.73;0.20;;;;;;;;;;5022047;28;20129;-92
2022/07/20 15:27:43;;;;;;;0.00;0.00;;;;;;;;;;5042525;28;20072;-89
2022/07/20 15:30:10;;;;;;;0.00;0.00;;;;;;;;;;5179705;23;20119;-92
2022/07/20 15:32:36;;;;;;;0.05;0.00;;;;;;;;;;5037925;28;20132;-92
2022/07/20 15:35:02;;;;;;;0.00;0.00;;;;;;;;;;5036122;28;20072;-92
2022/07/20 15:37:28;;;;;;;0.00;0.00;;;;;;;;;;5036493;28;20045;-95
2022/07/20 15:39:54;;;;;;;0.00;0.00;;;;;;;;;;5039200;28;20056;-95
2022/07/20 15:42:23;;;;;;;0.00;0.00;;;;;;;;;;5036874;28;20052;-93
2022/07/20 15:44:49;;;;;;;0.00;0.00;;;;;;;;;;5035760;28;20041;-93
2022/07/20 15:47:17;;;;;;;0.00;0.00;;;;;;;;;;5036144;28;20468;-95
2022/07/20 15:49:44;;;;;;;0.00;0.00;;;;;;;;;;5036663;28;20125;-91
2022/07/20 15:52:10;;;;;;;0.00;0.00;;;;;;;;;;5035918;28;20056;-93
2022/07/20 15:54:39;;;;;;;0.00;0.00;;;;;;;;;;5035694;28;20055;-93
2022/07/20 15:57:20;;;;;;;0.00;0.00;;;;;;;;;;5052659;28;20048;-95